Terminal Aerodrome Forecast
Issued by NWS

Home | Current Version | Previous Version | Text Only | Print | Product List | Glossary On
Versions: 1 2 3 4 5 6 7 8 9 10 11 12
000
FTUS42 KTBW 250500
TAFLAL
TAF
KLAL 250520Z 2506/2606 03004KT P6SM SKC
     FM251500 01008KT P6SM SKC
     FM260100 VRB03KT P6SM SKC
      AMD NOT SKED 2506/2512=

USA.gov is the U.S. government's official web portal to all federal, state and local government web resources and services.